sensor_id;sensor_type;location;lat;lon;timestamp;pressure;altitude;pressure_sealevel;temperature;humidity
47811;BME280;33575;52.600;7.318;2023-08-20T00:00:15;101880.38;;;18.26;92.82
47811;BME280;33575;52.600;7.318;2023-08-20T00:02:46;101883.34;;;18.21;93.07
47811;BME280;33575;52.600;7.318;2023-08-20T00:05:16;101884.65;;;18.17;93.04
47811;BME280;33575;52.600;7.318;2023-08-20T00:07:46;101886.63;;;18.14;93.13
47811;BME280;33575;52.600;7.318;2023-08-20T00:10:16;101884.79;;;18.10;93.16
47811;BME280;33575;52.600;7.318;2023-08-20T00:12:46;101881.72;;;18.08;93.38
47811;BME280;33575;52.600;7.318;2023-08-20T00:15:17;101878.52;;;18.04;93.43
47811;BME280;33575;52.600;7.318;2023-08-20T00:17:48;101873.08;;;18.02;93.57
47811;BME280;33575;52.600;7.318;2023-08-20T00:20:18;101869.54;;;17.99;93.64
47811;BME280;33575;52.600;7.318;2023-08-20T00:22:48;101865.85;;;17.95;93.63
47811;BME280;33575;52.600;7.318;2023-08-20T00:25:18;101864.73;;;17.93;93.64
47811;BME280;33575;52.600;7.318;2023-08-20T00:27:49;101862.68;;;17.90;93.84
47811;BME280;33575;52.600;7.318;2023-08-20T00:30:19;101867.96;;;17.86;93.88
47811;BME280;33575;52.600;7.318;2023-08-20T00:32:50;101871.14;;;17.83;93.96
47811;BME280;33575;52.600;7.318;2023-08-20T00:35:19;101876.77;;;17.80;94.16
47811;BME280;33575;52.600;7.318;2023-08-20T00:37:50;101875.83;;;17.78;94.25
47811;BME280;33575;52.600;7.318;2023-08-20T00:40:20;101871.33;;;17.75;94.33
47811;BME280;33575;52.600;7.318;2023-08-20T00:42:50;101873.19;;;17.73;94.56
47811;BME280;33575;52.600;7.318;2023-08-20T00:45:21;101876.07;;;17.71;94.57
47811;BME280;33575;52.600;7.318;2023-08-20T00:47:51;101881.52;;;17.70;94.70
47811;BME280;33575;52.600;7.318;2023-08-20T00:50:22;101884.91;;;17.68;94.84
47811;BME280;33575;52.600;7.318;2023-08-20T00:52:52;101889.03;;;17.67;94.85
47811;BME280;33575;52.600;7.318;2023-08-20T00:55:23;101895.43;;;17.64;94.93
47811;BME280;33575;52.600;7.318;2023-08-20T00:57:53;101900.31;;;17.65;95.00
47811;BME280;33575;52.600;7.318;2023-08-20T01:00:24;101902.11;;;17.68;95.33
47811;BME280;33575;52.600;7.318;2023-08-20T01:02:53;101903.29;;;17.70;95.43
47811;BME280;33575;52.600;7.318;2023-08-20T01:05:24;101905.23;;;17.72;95.62
47811;BME280;33575;52.600;7.318;2023-08-20T01:08:03;101900.85;;;17.73;95.42
47811;BME280;33575;52.600;7.318;2023-08-20T01:10:34;101902.28;;;17.75;95.28
47811;BME280;33575;52.600;7.318;2023-08-20T01:12:56;101900.82;;;17.78;95.15
47811;BME280;33575;52.600;7.318;2023-08-20T01:15:26;101901.86;;;17.81;94.82
47811;BME280;33575;52.600;7.318;2023-08-20T01:17:56;101895.76;;;17.77;95.07
47811;BME280;33575;52.600;7.318;2023-08-20T01:20:32;101893.25;;;17.79;94.86
47811;BME280;33575;52.600;7.318;2023-08-20T01:23:10;101887.92;;;17.80;94.61
47811;BME280;33575;52.600;7.318;2023-08-20T01:25:37;101888.64;;;17.82;94.38
47811;BME280;33575;52.600;7.318;2023-08-20T01:30:28;101897.39;;;17.82;94.26
47811;BME280;33575;52.600;7.318;2023-08-20T01:32:58;101902.18;;;17.83;94.34
47811;BME280;33575;52.600;7.318;2023-08-20T01:35:28;101902.07;;;17.85;94.43
47811;BME280;33575;52.600;7.318;2023-08-20T01:37:58;101904.88;;;17.87;94.62
47811;BME280;33575;52.600;7.318;2023-08-20T01:40:29;101910.36;;;17.85;94.58
47811;BME280;33575;52.600;7.318;2023-08-20T01:42:59;101914.96;;;17.82;94.47
47811;BME280;33575;52.600;7.318;2023-08-20T01:45:29;101913.68;;;17.76;94.49
47811;BME280;33575;52.600;7.318;2023-08-20T01:48:00;101918.13;;;17.72;94.88
47811;BME280;33575;52.600;7.318;2023-08-20T01:50:30;101920.09;;;17.70;94.94
47811;BME280;33575;52.600;7.318;2023-08-20T01:53:01;101920.06;;;17.70;94.65
47811;BME280;33575;52.600;7.318;2023-08-20T01:55:33;101918.97;;;17.69;94.38
47811;BME280;33575;52.600;7.318;2023-08-20T01:58:02;101913.33;;;17.67;94.18
47811;BME280;33575;52.600;7.318;2023-08-20T02:00:32;101914.45;;;17.66;94.17
47811;BME280;33575;52.600;7.318;2023-08-20T02:03:03;101915.02;;;17.61;94.20
47811;BME280;33575;52.600;7.318;2023-08-20T02:05:33;101924.95;;;17.55;94.61
47811;BME280;33575;52.600;7.318;2023-08-20T02:08:04;101931.53;;;17.54;94.77
47811;BME280;33575;52.600;7.318;2023-08-20T02:10:33;101935.36;;;17.51;94.84
47811;BME280;33575;52.600;7.318;2023-08-20T02:13:04;101939.81;;;17.49;94.89
47811;BME280;33575;52.600;7.318;2023-08-20T02:15:34;101942.07;;;17.52;94.55
47811;BME280;33575;52.600;7.318;2023-08-20T02:18:05;101942.87;;;17.49;94.38
47811;BME280;33575;52.600;7.318;2023-08-20T02:20:35;101948.03;;;17.43;94.27
47811;BME280;33575;52.600;7.318;2023-08-20T02:23:05;101945.27;;;17.36;94.30
47811;BME280;33575;52.600;7.318;2023-08-20T02:25:35;101940.88;;;17.29;94.42
47811;BME280;33575;52.600;7.318;2023-08-20T02:28:06;101942.45;;;17.24;94.53
47811;BME280;33575;52.600;7.318;2023-08-20T02:30:40;101942.87;;;17.20;94.45
47811;BME280;33575;52.600;7.318;2023-08-20T02:33:06;101943.47;;;17.15;94.53
47811;BME280;33575;52.600;7.318;2023-08-20T02:35:37;101940.12;;;17.11;94.47
47811;BME280;33575;52.600;7.318;2023-08-20T02:38:07;101935.97;;;17.07;94.68
47811;BME280;33575;52.600;7.318;2023-08-20T02:40:41;101932.89;;;17.09;94.80
47811;BME280;33575;52.600;7.318;2023-08-20T02:43:08;101933.26;;;17.12;94.94
47811;BME280;33575;52.600;7.318;2023-08-20T02:45:40;101934.83;;;17.15;95.07
47811;BME280;33575;52.600;7.318;2023-08-20T02:48:08;101941.18;;;17.16;95.09
47811;BME280;33575;52.600;7.318;2023-08-20T02:50:39;101946.08;;;17.17;95.19
47811;BME280;33575;52.600;7.318;2023-08-20T02:53:09;101948.41;;;17.19;95.38
47811;BME280;33575;52.600;7.318;2023-08-20T02:55:40;101944.13;;;17.18;95.49
47811;BME280;33575;52.600;7.318;2023-08-20T02:58:10;101942.11;;;17.19;95.22
47811;BME280;33575;52.600;7.318;2023-08-20T03:00:41;101939.87;;;17.19;95.15
47811;BME280;33575;52.600;7.318;2023-08-20T03:03:11;101942.42;;;17.20;95.30
47811;BME280;33575;52.600;7.318;2023-08-20T03:05:42;101943.28;;;17.22;95.42
47811;BME280;33575;52.600;7.318;2023-08-20T03:08:12;101943.09;;;17.23;95.39
47811;BME280;33575;52.600;7.318;2023-08-20T03:10:43;101946.85;;;17.23;95.37
47811;BME280;33575;52.600;7.318;2023-08-20T03:13:13;101948.94;;;17.21;95.41
47811;BME280;33575;52.600;7.318;2023-08-20T03:15:43;101949.06;;;17.22;95.53
47811;BME280;33575;52.600;7.318;2023-08-20T03:18:14;101947.11;;;17.23;95.60
47811;BME280;33575;52.600;7.318;2023-08-20T03:20:45;101939.97;;;17.23;95.62
47811;BME280;33575;52.600;7.318;2023-08-20T03:23:15;101942.89;;;17.23;95.64
47811;BME280;33575;52.600;7.318;2023-08-20T03:25:45;101943.06;;;17.25;95.72
47811;BME280;33575;52.600;7.318;2023-08-20T03:28:17;101941.06;;;17.26;95.72
47811;BME280;33575;52.600;7.318;2023-08-20T03:30:46;101936.68;;;17.26;95.71
47811;BME280;33575;52.600;7.318;2023-08-20T03:33:16;101935.94;;;17.26;95.58
47811;BME280;33575;52.600;7.318;2023-08-20T03:35:47;101934.46;;;17.28;95.36
47811;BME280;33575;52.600;7.318;2023-08-20T03:38:17;101931.00;;;17.30;95.33
47811;BME280;33575;52.600;7.318;2023-08-20T03:40:47;101924.07;;;17.32;95.10
47811;BME280;33575;52.600;7.318;2023-08-20T03:43:18;101912.55;;;17.34;95.18
47811;BME280;33575;52.600;7.318;2023-08-20T03:45:50;101902.22;;;17.34;95.12
47811;BME280;33575;52.600;7.318;2023-08-20T03:48:19;101897.72;;;17.32;95.01
47811;BME280;33575;52.600;7.318;2023-08-20T03:50:49;101901.65;;;17.30;95.02
47811;BME280;33575;52.600;7.318;2023-08-20T03:53:19;101904.71;;;17.30;95.11
47811;BME280;33575;52.600;7.318;2023-08-20T03:55:50;101906.62;;;17.29;95.09
47811;BME280;33575;52.600;7.318;2023-08-20T03:58:20;101910.20;;;17.27;95.10
47811;BME280;33575;52.600;7.318;2023-08-20T04:00:50;101910.10;;;17.25;95.19
47811;BME280;33575;52.600;7.318;2023-08-20T04:03:20;101907.94;;;17.24;95.29
47811;BME280;33575;52.600;7.318;2023-08-20T04:05:51;101910.57;;;17.21;95.47
47811;BME280;33575;52.600;7.318;2023-08-20T04:08:21;101912.70;;;17.19;95.50
47811;BME280;33575;52.600;7.318;2023-08-20T04:10:52;101915.86;;;17.18;95.53
47811;BME280;33575;52.600;7.318;2023-08-20T04:13:23;101914.51;;;17.17;95.54
47811;BME280;33575;52.600;7.318;2023-08-20T04:15:52;101915.14;;;17.16;95.50
47811;BME280;33575;52.600;7.318;2023-08-20T04:18:23;101923.26;;;17.14;95.70
47811;BME280;33575;52.600;7.318;2023-08-20T04:20:53;101924.59;;;17.10;95.73
47811;BME280;33575;52.600;7.318;2023-08-20T04:23:23;101924.10;;;17.05;95.78
47811;BME280;33575;52.600;7.318;2023-08-20T04:25:53;101918.37;;;17.03;95.89
47811;BME280;33575;52.600;7.318;2023-08-20T04:28:24;101922.01;;;17.01;95.95
47811;BME280;33575;52.600;7.318;2023-08-20T04:30:54;101928.11;;;17.03;96.22
47811;BME280;33575;52.600;7.318;2023-08-20T04:33:25;101927.54;;;17.00;96.46
47811;BME280;33575;52.600;7.318;2023-08-20T04:35:55;101930.39;;;16.98;96.59
47811;BME280;33575;52.600;7.318;2023-08-20T04:38:25;101932.64;;;16.95;96.70
47811;BME280;33575;52.600;7.318;2023-08-20T04:40:56;101936.51;;;16.98;96.62
47811;BME280;33575;52.600;7.318;2023-08-20T04:43:26;101938.27;;;16.98;96.72
47811;BME280;33575;52.600;7.318;2023-08-20T04:45:56;101938.04;;;16.95;96.88
47811;BME280;33575;52.600;7.318;2023-08-20T04:48:27;101937.47;;;16.95;96.96
47811;BME280;33575;52.600;7.318;2023-08-20T04:50:57;101939.55;;;16.97;96.87
47811;BME280;33575;52.600;7.318;2023-08-20T04:53:27;101942.35;;;17.00;96.86
47811;BME280;33575;52.600;7.318;2023-08-20T04:55:58;101947.84;;;17.02;96.86
47811;BME280;33575;52.600;7.318;2023-08-20T04:58:28;101954.65;;;17.04;96.70
47811;BME280;33575;52.600;7.318;2023-08-20T05:00:58;101956.40;;;17.08;96.70
47811;BME280;33575;52.600;7.318;2023-08-20T05:03:28;101962.50;;;17.10;97.00
47811;BME280;33575;52.600;7.318;2023-08-20T05:05:58;101964.81;;;17.13;97.01
47811;BME280;33575;52.600;7.318;2023-08-20T05:08:29;101964.94;;;17.13;96.96
47811;BME280;33575;52.600;7.318;2023-08-20T05:10:59;101966.44;;;17.14;97.01
47811;BME280;33575;52.600;7.318;2023-08-20T05:13:29;101970.35;;;17.18;96.93
47811;BME280;33575;52.600;7.318;2023-08-20T05:16:00;101968.54;;;17.19;96.71
47811;BME280;33575;52.600;7.318;2023-08-20T05:18:31;101969.03;;;17.21;96.67
47811;BME280;33575;52.600;7.318;2023-08-20T05:21:01;101970.08;;;17.22;96.45
47811;BME280;33575;52.600;7.318;2023-08-20T05:23:31;101972.40;;;17.21;96.48
47811;BME280;33575;52.600;7.318;2023-08-20T05:26:01;101970.06;;;17.21;96.65
47811;BME280;33575;52.600;7.318;2023-08-20T05:28:32;101970.40;;;17.22;97.36
47811;BME280;33575;52.600;7.318;2023-08-20T05:31:02;101974.95;;;17.26;97.05
47811;BME280;33575;52.600;7.318;2023-08-20T05:33:32;101977.35;;;17.29;97.31
47811;BME280;33575;52.600;7.318;2023-08-20T05:36:03;101979.48;;;17.34;96.92
47811;BME280;33575;52.600;7.318;2023-08-20T05:38:33;101979.42;;;17.38;97.16
47811;BME280;33575;52.600;7.318;2023-08-20T05:41:03;101984.90;;;17.42;97.54
47811;BME280;33575;52.600;7.318;2023-08-20T05:43:34;101987.43;;;17.46;97.43
47811;BME280;33575;52.600;7.318;2023-08-20T05:46:04;101988.13;;;17.49;97.30
47811;BME280;33575;52.600;7.318;2023-08-20T05:48:34;101988.60;;;17.53;97.43
47811;BME280;33575;52.600;7.318;2023-08-20T05:51:04;101985.89;;;17.56;98.08
47811;BME280;33575;52.600;7.318;2023-08-20T05:53:35;101988.59;;;17.61;97.83
47811;BME280;33575;52.600;7.318;2023-08-20T05:56:05;101988.80;;;17.66;98.12
47811;BME280;33575;52.600;7.318;2023-08-20T05:58:36;101988.47;;;17.70;98.28
47811;BME280;33575;52.600;7.318;2023-08-20T06:01:06;101988.96;;;17.75;98.47
47811;BME280;33575;52.600;7.318;2023-08-20T06:03:37;101992.67;;;17.83;98.17
47811;BME280;33575;52.600;7.318;2023-08-20T06:06:10;101991.76;;;17.90;98.45
47811;BME280;33575;52.600;7.318;2023-08-20T06:08:38;101989.06;;;17.96;98.14
47811;BME280;33575;52.600;7.318;2023-08-20T06:11:08;101985.50;;;17.99;99.04
47811;BME280;33575;52.600;7.318;2023-08-20T06:13:40;101984.81;;;18.01;99.47
47811;BME280;33575;52.600;7.318;2023-08-20T06:16:10;101986.77;;;18.00;100.00
47811;BME280;33575;52.600;7.318;2023-08-20T06:18:40;101990.12;;;18.03;100.00
47811;BME280;33575;52.600;7.318;2023-08-20T06:21:10;101988.97;;;18.07;100.00
47811;BME280;33575;52.600;7.318;2023-08-20T06:23:45;101991.67;;;18.16;100.00
47811;BME280;33575;52.600;7.318;2023-08-20T06:26:11;101995.10;;;18.25;99.78
47811;BME280;33575;52.600;7.318;2023-08-20T06:28:42;101993.17;;;18.28;100.00
47811;BME280;33575;52.600;7.318;2023-08-20T06:31:12;101992.26;;;18.29;100.00
47811;BME280;33575;52.600;7.318;2023-08-20T06:33:42;101994.49;;;18.32;100.00
47811;BME280;33575;52.600;7.318;2023-08-20T06:36:13;101993.51;;;18.40;100.00
47811;BME280;33575;52.600;7.318;2023-08-20T06:38:43;101998.69;;;18.47;100.00
47811;BME280;33575;52.600;7.318;2023-08-20T06:41:13;101998.73;;;18.54;99.97
47811;BME280;33575;52.600;7.318;2023-08-20T06:43:43;102001.22;;;18.55;100.00
47811;BME280;33575;52.600;7.318;2023-08-20T06:46:14;102003.91;;;18.57;100.00
47811;BME280;33575;52.600;7.318;2023-08-20T06:48:44;102009.56;;;18.64;100.00
47811;BME280;33575;52.600;7.318;2023-08-20T06:51:15;102011.85;;;18.68;100.00
47811;BME280;33575;52.600;7.318;2023-08-20T06:53:45;102014.10;;;18.75;100.00
47811;BME280;33575;52.600;7.318;2023-08-20T06:56:15;102015.79;;;18.82;100.00
47811;BME280;33575;52.600;7.318;2023-08-20T06:58:46;102014.62;;;18.88;100.00
47811;BME280;33575;52.600;7.318;2023-08-20T07:01:15;102021.19;;;18.93;100.00
47811;BME280;33575;52.600;7.318;2023-08-20T07:03:46;102020.95;;;18.96;100.00
47811;BME280;33575;52.600;7.318;2023-08-20T07:06:17;102025.47;;;19.01;100.00
47811;BME280;33575;52.600;7.318;2023-08-20T07:08:47;102025.77;;;19.04;100.00
47811;BME280;33575;52.600;7.318;2023-08-20T07:11:17;102024.71;;;19.12;100.00
47811;BME280;33575;52.600;7.318;2023-08-20T07:13:48;102027.97;;;19.17;100.00
47811;BME280;33575;52.600;7.318;2023-08-20T07:16:19;102027.50;;;19.19;100.00
47811;BME280;33575;52.600;7.318;2023-08-20T07:18:48;102027.57;;;19.22;100.00
47811;BME280;33575;52.600;7.318;2023-08-20T07:21:19;102025.02;;;19.27;100.00
47811;BME280;33575;52.600;7.318;2023-08-20T07:23:49;102022.62;;;19.28;100.00
47811;BME280;33575;52.600;7.318;2023-08-20T07:26:20;102018.53;;;19.39;100.00
47811;BME280;33575;52.600;7.318;2023-08-20T07:28:50;102022.06;;;19.45;100.00
47811;BME280;33575;52.600;7.318;2023-08-20T07:31:21;102019.30;;;19.54;100.00
47811;BME280;33575;52.600;7.318;2023-08-20T07:33:52;102019.59;;;19.64;100.00
47811;BME280;33575;52.600;7.318;2023-08-20T07:36:21;102019.99;;;19.67;100.00
47811;BME280;33575;52.600;7.318;2023-08-20T07:38:53;102020.26;;;19.76;100.00
47811;BME280;33575;52.600;7.318;2023-08-20T07:41:22;102023.43;;;19.82;100.00
47811;BME280;33575;52.600;7.318;2023-08-20T07:43:53;102026.07;;;19.85;100.00
47811;BME280;33575;52.600;7.318;2023-08-20T07:46:23;102027.18;;;19.88;100.00
47811;BME280;33575;52.600;7.318;2023-08-20T07:48:53;102018.47;;;19.91;100.00
47811;BME280;33575;52.600;7.318;2023-08-20T07:51:24;102017.02;;;20.01;100.00
47811;BME280;33575;52.600;7.318;2023-08-20T07:53:54;102014.83;;;20.00;100.00
47811;BME280;33575;52.600;7.318;2023-08-20T07:56:25;102015.34;;;20.09;100.00
47811;BME280;33575;52.600;7.318;2023-08-20T07:58:55;102017.09;;;20.06;100.00
47811;BME280;33575;52.600;7.318;2023-08-20T08:01:26;102018.97;;;20.16;100.00
47811;BME280;33575;52.600;7.318;2023-08-20T08:03:56;102023.46;;;20.17;100.00
47811;BME280;33575;52.600;7.318;2023-08-20T08:06:26;102023.10;;;20.29;100.00
47811;BME280;33575;52.600;7.318;2023-08-20T08:08:57;102021.84;;;20.38;100.00
47811;BME280;33575;52.600;7.318;2023-08-20T08:11:27;102027.77;;;20.36;100.00
47811;BME280;33575;52.600;7.318;2023-08-20T08:13:57;102027.67;;;20.33;100.00
47811;BME280;33575;52.600;7.318;2023-08-20T08:16:27;102027.86;;;20.47;100.00
47811;BME280;33575;52.600;7.318;2023-08-20T08:18:58;102024.65;;;20.41;100.00
47811;BME280;33575;52.600;7.318;2023-08-20T08:21:28;102023.80;;;20.61;100.00
47811;BME280;33575;52.600;7.318;2023-08-20T08:23:59;102018.87;;;20.65;100.00
47811;BME280;33575;52.600;7.318;2023-08-20T08:26:29;102022.08;;;20.67;100.00
47811;BME280;33575;52.600;7.318;2023-08-20T08:29:00;102017.23;;;20.84;100.00
47811;BME280;33575;52.600;7.318;2023-08-20T08:31:31;102019.78;;;20.84;99.86
47811;BME280;33575;52.600;7.318;2023-08-20T08:34:02;102020.57;;;20.87;98.54
47811;BME280;33575;52.600;7.318;2023-08-20T08:36:32;102026.46;;;20.83;98.13
47811;BME280;33575;52.600;7.318;2023-08-20T08:39:02;102029.15;;;20.80;98.08
47811;BME280;33575;52.600;7.318;2023-08-20T08:41:35;102033.22;;;20.92;99.34
47811;BME280;33575;52.600;7.318;2023-08-20T08:44:03;102032.77;;;21.00;99.70
47811;BME280;33575;52.600;7.318;2023-08-20T08:46:35;102032.29;;;21.09;100.00
47811;BME280;33575;52.600;7.318;2023-08-20T08:49:03;102035.18;;;21.16;98.98
47811;BME280;33575;52.600;7.318;2023-08-20T08:51:36;102036.92;;;21.22;98.54
47811;BME280;33575;52.600;7.318;2023-08-20T08:54:05;102038.44;;;21.30;99.18
47811;BME280;33575;52.600;7.318;2023-08-20T08:56:35;102041.44;;;21.31;97.04
47811;BME280;33575;52.600;7.318;2023-08-20T08:59:05;102043.54;;;21.30;97.37
47811;BME280;33575;52.600;7.318;2023-08-20T09:01:38;102046.89;;;21.35;97.33
47811;BME280;33575;52.600;7.318;2023-08-20T09:04:05;102050.67;;;21.29;97.14
47811;BME280;33575;52.600;7.318;2023-08-20T09:06:44;102051.02;;;21.44;96.26
47811;BME280;33575;52.600;7.318;2023-08-20T09:09:06;102053.10;;;21.56;97.70
47811;BME280;33575;52.600;7.318;2023-08-20T09:11:37;102055.83;;;21.56;96.07
47811;BME280;33575;52.600;7.318;2023-08-20T09:14:08;102053.32;;;21.58;95.74
47811;BME280;33575;52.600;7.318;2023-08-20T09:16:38;102052.06;;;21.62;95.18
47811;BME280;33575;52.600;7.318;2023-08-20T09:19:08;102050.41;;;21.77;96.12
47811;BME280;33575;52.600;7.318;2023-08-20T09:21:40;102050.34;;;21.85;95.08
47811;BME280;33575;52.600;7.318;2023-08-20T09:24:09;102049.26;;;21.95;95.61
47811;BME280;33575;52.600;7.318;2023-08-20T09:26:39;102052.26;;;22.08;95.38
47811;BME280;33575;52.600;7.318;2023-08-20T09:29:10;102051.41;;;22.11;95.21
47811;BME280;33575;52.600;7.318;2023-08-20T09:31:41;102055.47;;;22.14;95.14
47811;BME280;33575;52.600;7.318;2023-08-20T09:34:12;102050.94;;;22.13;93.42
47811;BME280;33575;52.600;7.318;2023-08-20T09:36:43;102054.20;;;22.17;94.27
47811;BME280;33575;52.600;7.318;2023-08-20T09:39:12;102051.09;;;22.24;94.24
47811;BME280;33575;52.600;7.318;2023-08-20T09:41:44;102051.54;;;22.23;93.15
47811;BME280;33575;52.600;7.318;2023-08-20T09:44:13;102050.23;;;22.16;91.70
47811;BME280;33575;52.600;7.318;2023-08-20T09:46:43;102055.04;;;22.28;93.32
47811;BME280;33575;52.600;7.318;2023-08-20T09:49:15;102051.71;;;22.36;91.67
47811;BME280;33575;52.600;7.318;2023-08-20T09:51:45;102055.26;;;22.47;94.45
47811;BME280;33575;52.600;7.318;2023-08-20T09:54:19;102057.10;;;22.42;92.21
47811;BME280;33575;52.600;7.318;2023-08-20T09:56:48;102051.22;;;22.50;91.58
47811;BME280;33575;52.600;7.318;2023-08-20T09:59:15;102052.97;;;22.68;92.97
47811;BME280;33575;52.600;7.318;2023-08-20T10:01:47;102051.31;;;22.69;91.11
47811;BME280;33575;52.600;7.318;2023-08-20T10:04:17;102050.44;;;22.77;91.46
47811;BME280;33575;52.600;7.318;2023-08-20T10:06:46;102045.92;;;22.95;95.72
47811;BME280;33575;52.600;7.318;2023-08-20T10:09:17;102050.46;;;23.13;91.55
47811;BME280;33575;52.600;7.318;2023-08-20T10:11:47;102051.04;;;23.18;90.27
47811;BME280;33575;52.600;7.318;2023-08-20T10:14:18;102053.34;;;23.17;89.23
47811;BME280;33575;52.600;7.318;2023-08-20T10:16:48;102053.36;;;23.16;89.38
47811;BME280;33575;52.600;7.318;2023-08-20T10:19:19;102056.52;;;23.19;88.88
47811;BME280;33575;52.600;7.318;2023-08-20T10:21:52;102053.80;;;23.19;89.71
47811;BME280;33575;52.600;7.318;2023-08-20T10:24:20;102049.39;;;23.20;88.47
47811;BME280;33575;52.600;7.318;2023-08-20T10:27:07;102051.27;;;23.23;89.49
47811;BME280;33575;52.600;7.318;2023-08-20T10:31:54;102044.40;;;23.33;88.66
47811;BME280;33575;52.600;7.318;2023-08-20T10:36:52;102043.25;;;23.52;87.76
47811;BME280;33575;52.600;7.318;2023-08-20T10:39:22;102042.03;;;23.67;88.61
47811;BME280;33575;52.600;7.318;2023-08-20T10:44:23;102049.75;;;23.79;84.70
47811;BME280;33575;52.600;7.318;2023-08-20T10:46:53;102051.45;;;23.83;85.23
47811;BME280;33575;52.600;7.318;2023-08-20T10:49:23;102046.35;;;23.79;85.19
47811;BME280;33575;52.600;7.318;2023-08-20T10:51:53;102045.85;;;23.90;85.70
47811;BME280;33575;52.600;7.318;2023-08-20T10:54:23;102044.89;;;24.00;83.85
47811;BME280;33575;52.600;7.318;2023-08-20T10:56:56;102046.27;;;24.10;84.93
47811;BME280;33575;52.600;7.318;2023-08-20T10:59:26;102050.25;;;24.16;83.89
47811;BME280;33575;52.600;7.318;2023-08-20T11:01:56;102043.81;;;24.20;82.19
47811;BME280;33575;52.600;7.318;2023-08-20T11:04:27;102046.12;;;24.27;81.36
47811;BME280;33575;52.600;7.318;2023-08-20T11:06:56;102050.05;;;24.42;83.74
47811;BME280;33575;52.600;7.318;2023-08-20T11:09:26;102047.53;;;24.46;81.48
47811;BME280;33575;52.600;7.318;2023-08-20T11:11:55;102049.56;;;24.61;81.46
47811;BME280;33575;52.600;7.318;2023-08-20T11:14:25;102052.97;;;24.58;80.17
47811;BME280;33575;52.600;7.318;2023-08-20T11:16:55;102052.86;;;24.62;81.25
47811;BME280;33575;52.600;7.318;2023-08-20T11:19:25;102052.37;;;24.55;76.50
47811;BME280;33575;52.600;7.318;2023-08-20T11:21:55;102052.43;;;24.44;76.10
47811;BME280;33575;52.600;7.318;2023-08-20T11:24:28;102051.19;;;24.59;80.41
47811;BME280;33575;52.600;7.318;2023-08-20T11:26:56;102048.31;;;24.61;77.95
47811;BME280;33575;52.600;7.318;2023-08-20T11:29:26;102049.00;;;24.51;76.20
47811;BME280;33575;52.600;7.318;2023-08-20T11:31:56;102050.16;;;24.62;78.21
47811;BME280;33575;52.600;7.318;2023-08-20T11:34:26;102042.03;;;24.61;76.07
47811;BME280;33575;52.600;7.318;2023-08-20T11:36:56;102049.08;;;24.63;75.96
47811;BME280;33575;52.600;7.318;2023-08-20T11:39:29;102042.14;;;24.58;74.16
47811;BME280;33575;52.600;7.318;2023-08-20T11:41:58;102045.32;;;24.68;76.57
47811;BME280;33575;52.600;7.318;2023-08-20T11:44:26;102043.30;;;24.86;74.51
47811;BME280;33575;52.600;7.318;2023-08-20T11:46:57;102045.54;;;24.91;74.37
47811;BME280;33575;52.600;7.318;2023-08-20T11:49:27;102041.88;;;24.66;72.09
47811;BME280;33575;52.600;7.318;2023-08-20T11:51:57;102042.95;;;24.82;73.58
47811;BME280;33575;52.600;7.318;2023-08-20T11:54:27;102043.44;;;24.81;76.64
47811;BME280;33575;52.600;7.318;2023-08-20T11:57:02;102039.80;;;24.74;73.03
47811;BME280;33575;52.600;7.318;2023-08-20T11:59:27;102032.30;;;24.85;73.74
47811;BME280;33575;52.600;7.318;2023-08-20T12:01:59;102025.08;;;25.00;77.20
47811;BME280;33575;52.600;7.318;2023-08-20T12:04:29;102022.18;;;25.07;77.33
47811;BME280;33575;52.600;7.318;2023-08-20T12:07:03;102024.40;;;25.04;76.31
47811;BME280;33575;52.600;7.318;2023-08-20T12:09:28;102025.70;;;25.00;74.77
47811;BME280;33575;52.600;7.318;2023-08-20T12:11:58;102028.20;;;24.92;71.56
47811;BME280;33575;52.600;7.318;2023-08-20T12:14:28;102023.99;;;24.81;71.33
47811;BME280;33575;52.600;7.318;2023-08-20T12:16:58;102026.09;;;24.88;72.97
47811;BME280;33575;52.600;7.318;2023-08-20T12:19:28;102023.26;;;24.82;70.66
47811;BME280;33575;52.600;7.318;2023-08-20T12:21:58;102021.01;;;24.76;71.89
47811;BME280;33575;52.600;7.318;2023-08-20T12:24:28;102022.95;;;24.65;69.36
47811;BME280;33575;52.600;7.318;2023-08-20T12:26:58;102022.40;;;24.70;71.20
47811;BME280;33575;52.600;7.318;2023-08-20T12:29:29;102020.65;;;24.61;68.58
47811;BME280;33575;52.600;7.318;2023-08-20T12:31:59;102016.43;;;24.71;69.95
47811;BME280;33575;52.600;7.318;2023-08-20T12:34:29;102014.61;;;24.80;66.68
47811;BME280;33575;52.600;7.318;2023-08-20T12:36:59;102014.67;;;24.81;68.94
47811;BME280;33575;52.600;7.318;2023-08-20T12:39:29;102013.12;;;24.85;68.22
47811;BME280;33575;52.600;7.318;2023-08-20T12:41:59;102015.41;;;24.96;71.04
47811;BME280;33575;52.600;7.318;2023-08-20T12:44:29;102014.16;;;25.06;70.52
47811;BME280;33575;52.600;7.318;2023-08-20T12:46:59;102015.47;;;24.87;65.64
47811;BME280;33575;52.600;7.318;2023-08-20T12:49:29;102017.84;;;24.94;68.42
47811;BME280;33575;52.600;7.318;2023-08-20T12:51:59;102017.38;;;24.95;65.89
47811;BME280;33575;52.600;7.318;2023-08-20T12:54:29;102014.65;;;24.86;65.66
47811;BME280;33575;52.600;7.318;2023-08-20T12:56:59;102010.02;;;25.00;67.20
47811;BME280;33575;52.600;7.318;2023-08-20T12:59:30;102006.71;;;24.99;66.26
47811;BME280;33575;52.600;7.318;2023-08-20T13:02:00;102006.39;;;24.96;68.08
47811;BME280;33575;52.600;7.318;2023-08-20T13:04:30;102008.64;;;25.10;69.34
47811;BME280;33575;52.600;7.318;2023-08-20T13:07:00;102001.58;;;24.93;66.66
47811;BME280;33575;52.600;7.318;2023-08-20T13:09:31;102002.09;;;24.95;65.77
47811;BME280;33575;52.600;7.318;2023-08-20T13:12:01;101999.32;;;24.96;65.45